createdAt,value
2019-01-19T00:04:29.088Z,-5.72
2019-01-19T00:10:04.681Z,-5.64
2019-01-19T00:15:44.607Z,-5.59
2019-01-19T00:21:18.833Z,-5.77
2019-01-19T00:26:55.162Z,-5.73
2019-01-19T00:32:23.199Z,-5.83
2019-01-19T00:37:46.963Z,-6.00
2019-01-19T00:43:10.134Z,-5.87
2019-01-19T00:48:48.106Z,-5.88
2019-01-19T00:54:08.273Z,-5.90
2019-01-19T00:59:37.700Z,-6.04
2019-01-19T01:05:04.621Z,-6.09
2019-01-19T01:10:50.601Z,-6.20
2019-01-19T01:16:25.981Z,-6.21
2019-01-19T01:21:48.305Z,-6.18
2019-01-19T01:27:15.567Z,-6.33
2019-01-19T01:33:04.390Z,-6.29
2019-01-19T01:38:47.153Z,-6.27
2019-01-19T01:44:20.225Z,-6.34
2019-01-19T01:49:39.830Z,-6.43
2019-01-19T01:55:10.833Z,-6.68
2019-01-19T02:00:32.183Z,-6.69
2019-01-19T02:05:57.963Z,-6.61
2019-01-19T02:11:43.853Z,-6.68
2019-01-19T02:17:19.964Z,-6.81
2019-01-19T02:22:56.531Z,-6.80
2019-01-19T02:28:23.801Z,-6.87
2019-01-19T02:34:00.425Z,-6.83
2019-01-19T02:39:40.088Z,-6.89
2019-01-19T02:45:14.016Z,-7.00
2019-01-19T02:50:38.246Z,-6.93
2019-01-19T02:56:14.876Z,-6.85
2019-01-19T03:02:04.088Z,-6.94
2019-01-19T03:07:39.882Z,-6.94
2019-01-19T03:13:11.197Z,-7.10
2019-01-19T03:18:33.760Z,-7.33
2019-01-19T03:24:02.905Z,-7.23
2019-01-19T03:29:27.036Z,-7.30
2019-01-19T03:34:48.614Z,-7.27
2019-01-19T03:40:19.396Z,-7.20
2019-01-19T03:45:55.803Z,-7.21
2019-01-19T03:51:19.511Z,-7.33
2019-01-19T03:56:56.926Z,-7.37
2019-01-19T04:02:18.958Z,-7.41
2019-01-19T04:07:58.708Z,-7.55
2019-01-19T04:13:33.469Z,-7.51
2019-01-19T04:19:13.399Z,-7.49
2019-01-19T04:24:38.909Z,-7.61
2019-01-19T04:29:57.323Z,-7.48
2019-01-19T04:35:14.515Z,-7.48
2019-01-19T04:40:31.587Z,-7.52
2019-01-19T04:45:49.236Z,-7.46
2019-01-19T04:51:06.467Z,-7.43
2019-01-19T04:56:23.943Z,-7.47
2019-01-19T05:01:41.669Z,-7.32
2019-01-19T05:06:59.115Z,-7.22
2019-01-19T05:12:16.382Z,-7.23
2019-01-19T05:17:33.559Z,-7.13
2019-01-19T05:22:50.935Z,-7.06
2019-01-19T05:28:08.489Z,-6.94
2019-01-19T05:33:26.125Z,-6.94
2019-01-19T05:38:43.773Z,-6.95
2019-01-19T05:44:01.750Z,-6.94
2019-01-19T05:49:18.951Z,-6.95
2019-01-19T05:54:36.416Z,-6.88
2019-01-19T05:59:54.191Z,-6.93
2019-01-19T06:05:12.725Z,-6.92
2019-01-19T06:10:29.794Z,-6.96
2019-01-19T06:15:47.588Z,-6.99
2019-01-19T06:21:06.051Z,-6.93
2019-01-19T06:26:23.474Z,-6.98
2019-01-19T06:31:40.891Z,-7.04
2019-01-19T06:36:58.053Z,-7.06
2019-01-19T06:42:15.806Z,-7.01
2019-01-19T06:47:34.267Z,-7.02
2019-01-19T06:52:51.234Z,-6.93
2019-01-19T06:58:08.608Z,-6.88
2019-01-19T07:03:26.281Z,-6.89
2019-01-19T07:08:46.654Z,-6.87
2019-01-19T07:14:04.473Z,-6.79
2019-01-19T07:19:22.978Z,-6.71
2019-01-19T07:24:40.568Z,-6.62
2019-01-19T07:29:58.544Z,-6.48
2019-01-19T07:35:15.975Z,-6.40
2019-01-19T07:40:33.013Z,-6.17
2019-01-19T07:45:50.524Z,-6.00
2019-01-19T07:51:08.437Z,-5.80
2019-01-19T07:56:26.379Z,-5.74
2019-01-19T08:01:43.708Z,-5.67
2019-01-19T08:07:01.340Z,-5.43
2019-01-19T08:12:18.364Z,-5.28
2019-01-19T08:17:35.514Z,-5.02
2019-01-19T08:22:53.437Z,-4.82
2019-01-19T08:28:11.220Z,-4.61
2019-01-19T08:33:28.663Z,-4.48
2019-01-19T08:38:45.685Z,-4.27
2019-01-19T08:44:05.926Z,-4.11
2019-01-19T08:49:23.033Z,-3.97
2019-01-19T08:54:40.209Z,-3.74
2019-01-19T08:59:57.564Z,-3.52
2019-01-19T09:05:15.216Z,-3.50
2019-01-19T09:10:33.235Z,-3.14
2019-01-19T09:15:51.474Z,-2.78
2019-01-19T09:21:08.935Z,-2.45
2019-01-19T09:26:27.182Z,-2.24
2019-01-19T09:31:44.851Z,-2.09
2019-01-19T09:37:02.668Z,-1.79
2019-01-19T09:42:20.518Z,-1.82
2019-01-19T09:47:38.095Z,-1.55
2019-01-19T09:52:56.598Z,-1.19
2019-01-19T09:58:14.706Z,-0.94
2019-01-19T10:03:32.266Z,-0.52
2019-01-19T10:08:52.720Z,-0.10
2019-01-19T10:14:10.403Z,-0.06
2019-01-19T10:19:27.488Z,0.05
2019-01-19T10:24:44.892Z,0.25
2019-01-19T10:30:02.258Z,0.86
2019-01-19T10:35:20.284Z,1.03
2019-01-19T10:40:38.119Z,1.18
2019-01-19T10:45:56.314Z,1.34
2019-01-19T10:51:13.791Z,1.92
2019-01-19T10:56:30.979Z,2.04
2019-01-19T11:01:49.006Z,2.31
2019-01-19T11:07:06.327Z,2.99
2019-01-19T11:12:23.787Z,2.82
2019-01-19T11:17:41.693Z,2.62
2019-01-19T11:22:59.621Z,2.99
2019-01-19T11:28:17.624Z,2.30
2019-01-19T11:33:34.865Z,2.15
2019-01-19T11:38:52.084Z,1.34
2019-01-19T11:44:09.446Z,2.15
2019-01-19T11:49:27.465Z,2.50
2019-01-19T11:54:45.325Z,2.32
2019-01-19T12:00:03.143Z,1.94
2019-01-19T12:05:20.891Z,1.28
2019-01-19T12:10:38.171Z,1.73
2019-01-19T12:15:55.677Z,1.86
2019-01-19T12:21:12.947Z,1.63
2019-01-19T12:26:30.531Z,1.94
2019-01-19T12:31:47.893Z,2.27
2019-01-19T12:37:05.441Z,2.64
2019-01-19T12:42:22.733Z,2.76
2019-01-19T12:47:40.547Z,2.81
2019-01-19T12:52:59.168Z,2.68
2019-01-19T12:58:16.988Z,2.38
2019-01-19T13:03:34.919Z,1.95
2019-01-19T13:08:52.743Z,1.92
2019-01-19T13:14:09.810Z,2.12
2019-01-19T13:19:36.061Z,2.02
2019-01-19T13:25:28.127Z,2.08
2019-01-19T13:31:01.316Z,2.43
2019-01-19T13:36:41.076Z,2.79
2019-01-19T13:42:17.870Z,2.70
2019-01-19T13:47:54.333Z,2.05
2019-01-19T13:53:34.987Z,1.83
2019-01-19T13:59:18.154Z,1.30
2019-01-19T14:05:04.141Z,0.83
2019-01-19T14:10:33.501Z,1.12
2019-01-19T14:16:03.627Z,0.48
2019-01-19T14:21:39.267Z,0.39
2019-01-19T14:27:13.313Z,0.53
2019-01-19T14:32:56.625Z,0.10
2019-01-19T14:38:45.966Z,-0.13
2019-01-19T14:50:11.361Z,-0.26
2019-01-19T14:55:37.462Z,-0.39
2019-01-19T15:01:09.528Z,-0.66
2019-01-19T15:06:53.953Z,-0.94
2019-01-19T15:12:24.067Z,-0.89
2019-01-19T15:18:03.915Z,-0.96
2019-01-19T15:23:39.847Z,-1.12
2019-01-19T15:29:16.604Z,-1.31
2019-01-19T15:34:41.671Z,-1.41
2019-01-19T15:40:06.339Z,-1.40
2019-01-19T15:45:41.775Z,-1.37
2019-01-19T15:51:17.413Z,-1.55
2019-01-19T15:56:57.076Z,-1.73
2019-01-19T16:02:40.282Z,-1.85
2019-01-19T16:08:15.975Z,-1.76
2019-01-19T16:13:37.312Z,-1.76
2019-01-19T16:19:14.013Z,-1.80
2019-01-19T16:24:49.228Z,-1.82
2019-01-19T16:30:26.193Z,-2.00
2019-01-19T16:35:56.586Z,-2.14
2019-01-19T16:41:45.502Z,-2.20
2019-01-19T16:47:12.585Z,-2.27
2019-01-19T16:52:33.665Z,-2.33
2019-01-19T16:57:55.569Z,-2.35
2019-01-19T17:03:22.025Z,-2.49
2019-01-19T17:09:05.459Z,-2.52
2019-01-19T17:14:58.445Z,-2.62
2019-01-19T17:20:22.775Z,-2.67
2019-01-19T17:25:49.729Z,-2.76
2019-01-19T17:31:28.075Z,-2.89
2019-01-19T17:36:52.653Z,-2.93
2019-01-19T17:42:38.625Z,-2.99
2019-01-19T17:48:02.685Z,-3.09
2019-01-19T17:53:49.332Z,-3.20
2019-01-19T17:59:25.058Z,-3.25
2019-01-19T18:05:05.060Z,-3.35
2019-01-19T18:10:51.001Z,-3.42
2019-01-19T18:16:13.863Z,-3.51
2019-01-19T18:21:49.648Z,-3.55
2019-01-19T18:27:25.093Z,-3.62
2019-01-19T18:32:54.196Z,-3.63
2019-01-19T18:38:25.743Z,-3.71
2019-01-19T18:43:59.165Z,-3.71
2019-01-19T18:49:45.183Z,-3.81
2019-01-19T18:55:25.070Z,-3.98
2019-01-19T19:01:14.035Z,-4.02
2019-01-19T19:07:03.359Z,-4.10
2019-01-19T19:12:52.875Z,-4.15
2019-01-19T19:18:28.170Z,-4.27
2019-01-19T19:23:54.235Z,-4.32
2019-01-19T19:29:26.393Z,-4.42
2019-01-19T19:35:06.174Z,-4.40
2019-01-19T19:40:59.114Z,-4.40
2019-01-19T19:46:36.498Z,-4.46
2019-01-19T19:51:56.111Z,-4.55
2019-01-19T19:57:15.011Z,-4.60
2019-01-19T20:02:32.235Z,-4.68
2019-01-19T20:07:49.694Z,-4.82
2019-01-19T20:13:07.935Z,-4.82
2019-01-19T20:18:26.246Z,-4.79
2019-01-19T20:23:43.701Z,-4.77
2019-01-19T20:29:02.018Z,-4.91
2019-01-19T20:34:20.103Z,-4.92
2019-01-19T20:39:38.250Z,-4.98
2019-01-19T20:44:55.478Z,-4.96
2019-01-19T20:50:14.045Z,-5.15
2019-01-19T20:55:32.151Z,-5.19
2019-01-19T21:00:49.511Z,-5.16
2019-01-19T21:06:07.339Z,-5.18
2019-01-19T21:11:24.983Z,-5.09
2019-01-19T21:16:42.246Z,-5.32
2019-01-19T21:22:00.751Z,-5.21
2019-01-19T21:27:20.471Z,-5.16
2019-01-19T21:32:37.915Z,-5.13
2019-01-19T21:37:55.340Z,-5.11
2019-01-19T21:43:13.079Z,-5.18
2019-01-19T21:48:30.409Z,-5.21
2019-01-19T21:53:49.887Z,-5.21
2019-01-19T21:59:09.128Z,-5.39
2019-01-19T22:04:26.595Z,-5.23
2019-01-19T22:09:44.470Z,-5.16
2019-01-19T22:15:01.541Z,-5.15
2019-01-19T22:20:18.785Z,-5.13
2019-01-19T22:25:36.466Z,-5.15
2019-01-19T22:30:53.480Z,-5.19
2019-01-19T22:36:11.183Z,-5.11
2019-01-19T22:41:29.254Z,-4.94
2019-01-19T22:46:46.545Z,-4.84
2019-01-19T22:52:04.223Z,-4.77
2019-01-19T22:57:22.265Z,-4.76
2019-01-19T23:02:39.689Z,-4.64
2019-01-19T23:07:56.777Z,-4.45
2019-01-19T23:13:14.437Z,-4.35
2019-01-19T23:18:31.900Z,-4.30
2019-01-19T23:23:50.343Z,-4.19
2019-01-19T23:29:07.874Z,-4.14
2019-01-19T23:34:25.849Z,-4.15
2019-01-19T23:39:48.630Z,-4.01
2019-01-19T23:45:06.450Z,-3.92
2019-01-19T23:50:23.782Z,-3.87
2019-01-19T23:55:41.396Z,-3.81
